Time;durP1;ratioP1;P1;durP2;ratioP2;P2;SDS_P1;SDS_P2;PMS_P1;PMS_P2;Temp;Humidity;BMP_temperature;BMP_pressure;BME280_temperature;BME280_humidity;BME280_pressure;Samples;Min_cycle;Max_cycle;Signal;HPM_P1;HPM_P2
2022/03/21 00:02:03;;;;;;;4.38;3.97;;;2.70;55.90;;;;;;5095155;28;20259;-80
2022/03/21 00:04:32;;;;;;;4.32;3.92;;;2.70;55.40;;;;;;5095060;28;20215;-83
2022/03/21 00:07:00;;;;;;;4.78;4.07;;;2.60;55.50;;;;;;5095296;28;20236;-83
2022/03/21 00:09:30;;;;;;;6.07;4.40;;;2.50;55.80;;;;;;5095293;28;20200;-83
2022/03/21 00:11:58;;;;;;;6.72;4.45;;;2.60;56.00;;;;;;5095502;28;20255;-83
2022/03/21 00:14:26;;;;;;;4.97;4.30;;;2.50;56.20;;;;;;5095099;28;20228;-82
2022/03/21 00:16:55;;;;;;;17.60;5.10;;;2.50;56.20;;;;;;5095063;28;20235;-82
2022/03/21 00:19:23;;;;;;;4.00;3.70;;;2.50;57.20;;;;;;5095145;28;20291;-83
2022/03/21 00:21:51;;;;;;;5.03;4.30;;;2.50;56.50;;;;;;5094797;28;20258;-83
2022/03/21 00:24:20;;;;;;;6.37;4.43;;;2.40;56.50;;;;;;5095264;28;20216;-83
2022/03/21 00:26:50;;;;;;;8.00;4.90;;;2.40;57.10;;;;;;5094786;28;20261;-83
2022/03/21 00:29:18;;;;;;;5.23;4.07;;;2.40;56.40;;;;;;5094687;28;20228;-83
2022/03/21 00:31:47;;;;;;;6.53;4.20;;;2.40;56.90;;;;;;5094552;28;20236;-83
2022/03/21 00:34:15;;;;;;;4.38;3.97;;;2.40;56.80;;;;;;5094986;28;20212;-83
2022/03/21 00:36:44;;;;;;;13.20;5.43;;;2.40;57.10;;;;;;5095033;28;20244;-83
2022/03/21 00:39:16;;;;;;;4.23;3.80;;;2.40;56.80;;;;;;5095244;28;20238;-82
2022/03/21 00:41:44;;;;;;;5.10;3.43;;;2.40;56.70;;;;;;5094160;28;20263;-81
2022/03/21 00:44:15;;;;;;;4.40;4.00;;;2.30;56.70;;;;;;5094179;28;20212;-80
2022/03/21 00:46:43;;;;;;;5.27;4.57;;;2.30;56.80;;;;;;5094077;28;20232;-80
2022/03/21 00:49:13;;;;;;;3.80;3.40;;;2.40;57.00;;;;;;5094413;28;20208;-81
2022/03/21 00:51:42;;;;;;;4.27;3.80;;;2.40;56.70;;;;;;5093887;28;20302;-81
2022/03/21 00:54:10;;;;;;;6.77;4.50;;;2.40;56.70;;;;;;5093929;28;20208;-81
2022/03/21 00:56:38;;;;;;;3.97;3.67;;;2.40;56.50;;;;;;5094072;28;20209;-80
2022/03/21 00:59:07;;;;;;;7.63;4.43;;;2.40;57.00;;;;;;5094438;28;20300;-81
2022/03/21 01:01:37;;;;;;;3.83;3.50;;;2.40;57.10;;;;;;5093978;28;20255;-83
2022/03/21 01:04:05;;;;;;;5.38;3.92;;;2.40;56.90;;;;;;5094257;28;20208;-83
2022/03/21 01:06:35;;;;;;;4.70;4.20;;;2.40;56.70;;;;;;5093999;28;20311;-81
2022/03/21 01:09:04;;;;;;;5.27;3.93;;;2.40;56.50;;;;;;5094281;28;20204;-81
2022/03/21 01:11:32;;;;;;;3.27;2.93;;;2.40;56.50;;;;;;5093445;28;20244;-81
2022/03/21 01:14:01;;;;;;;3.90;3.27;;;2.50;56.40;;;;;;5093972;28;20208;-81
2022/03/21 01:16:29;;;;;;;4.53;3.97;;;2.50;56.60;;;;;;5093964;28;20204;-81
2022/03/21 01:18:59;;;;;;;3.28;3.08;;;2.50;56.20;;;;;;5093838;28;20204;-81
2022/03/21 01:21:27;;;;;;;5.17;4.00;;;2.50;56.30;;;;;;5093291;28;20311;-81
2022/03/21 01:23:55;;;;;;;5.83;3.97;;;2.50;56.50;;;;;;5094372;28;20232;-80
2022/03/21 01:26:23;;;;;;;5.55;4.00;;;2.50;56.30;;;;;;5093996;28;20200;-83
2022/03/21 01:28:52;;;;;;;3.70;3.17;;;2.40;56.00;;;;;;5094089;28;20224;-83
2022/03/21 01:31:20;;;;;;;3.80;3.50;;;2.40;55.90;;;;;;5093753;28;20270;-83
2022/03/21 01:33:49;;;;;;;3.13;2.83;;;2.50;57.00;;;;;;5093623;28;20204;-82
2022/03/21 01:36:18;;;;;;;5.87;3.47;;;2.50;56.30;;;;;;5093854;28;20232;-83
2022/03/21 01:38:47;;;;;;;5.15;4.07;;;2.50;56.70;;;;;;5094352;28;20295;-83
2022/03/21 01:41:15;;;;;;;4.45;4.05;;;2.40;56.40;;;;;;5093445;28;20303;-83
2022/03/21 01:44:00;;;;;;;4.95;3.22;;;2.40;56.50;;;;;;5094127;28;20287;-83
2022/03/21 01:46:29;;;;;;;20.60;4.30;;;2.50;56.60;;;;;;5093884;28;20239;-82
2022/03/21 01:48:59;;;;;;;3.63;3.20;;;2.50;56.80;;;;;;5093398;28;20208;-83
2022/03/21 01:51:29;;;;;;;5.47;4.10;;;2.40;56.90;;;;;;5093241;28;20284;-83
2022/03/21 01:56:46;;;;;;;3.80;2.80;;;2.40;57.20;;;;;;5093398;28;20212;-83
2022/03/21 01:59:16;;;;;;;3.43;3.13;;;2.40;57.00;;;;;;5093370;28;20307;-83
2022/03/21 02:01:44;;;;;;;5.27;4.20;;;2.30;56.80;;;;;;5092852;28;20288;-82
2022/03/21 02:04:13;;;;;;;5.03;3.03;;;2.40;56.60;;;;;;5093572;28;20211;-83
2022/03/21 02:06:45;;;;;;;2.97;2.77;;;2.40;56.80;;;;;;5092851;28;20244;-82
2022/03/21 02:09:13;;;;;;;3.78;3.03;;;2.30;56.70;;;;;;5093729;28;20212;-83
2022/03/21 02:11:41;;;;;;;3.47;3.17;;;2.40;57.80;;;;;;5092821;28;20236;-83
2022/03/21 02:14:11;;;;;;;3.53;3.23;;;2.40;57.10;;;;;;5093152;28;20228;-83
2022/03/21 02:16:40;;;;;;;4.10;3.70;;;2.30;58.10;;;;;;5093025;28;20319;-82
2022/03/21 02:19:19;;;;;;;5.13;3.93;;;2.30;57.90;;;;;;5092924;28;20269;-83
2022/03/21 02:22:01;;;;;;;3.50;3.05;;;2.30;57.70;;;;;;5093113;28;20320;-81
2022/03/21 02:24:38;;;;;;;10.13;3.70;;;2.20;57.80;;;;;;5093023;28;20235;-81
2022/03/21 02:27:10;;;;;;;11.10;4.22;;;2.10;58.00;;;;;;5092951;28;20204;-81
2022/03/21 02:29:39;;;;;;;2.90;2.67;;;2.10;58.10;;;;;;5093081;28;20246;-81
2022/03/21 02:32:09;;;;;;;8.53;3.60;;;2.00;58.60;;;;;;5092557;28;20296;-82
2022/03/21 02:34:39;;;;;;;3.70;3.40;;;2.00;58.40;;;;;;5093151;28;20268;-81
2022/03/21 02:37:11;;;;;;;3.73;3.40;;;2.00;58.50;;;;;;5093223;28;20204;-81
2022/03/21 02:39:40;;;;;;;4.70;3.37;;;1.90;58.30;;;;;;5092860;28;20228;-81
2022/03/21 02:42:11;;;;;;;4.70;3.83;;;1.90;58.70;;;;;;5092323;28;20291;-81
2022/03/21 02:44:45;;;;;;;6.93;4.83;;;1.90;59.40;;;;;;5092985;28;20208;-81
2022/03/21 02:47:13;;;;;;;3.93;3.60;;;1.90;58.90;;;;;;5092773;28;20209;-81
2022/03/21 02:49:42;;;;;;;4.50;3.93;;;1.90;59.00;;;;;;5092873;28;20217;-83
2022/03/21 02:52:13;;;;;;;4.77;3.83;;;1.90;58.70;;;;;;5091957;28;20247;-82
2022/03/21 02:54:41;;;;;;;4.83;3.83;;;1.90;58.80;;;;;;5092227;28;20227;-81
2022/03/21 02:57:11;;;;;;;4.20;3.33;;;1.90;59.00;;;;;;5092942;28;20243;-83
2022/03/21 02:59:39;;;;;;;4.57;3.60;;;1.90;59.10;;;;;;5092696;28;20208;-80
2022/03/21 03:02:08;;;;;;;3.67;3.33;;;1.80;59.40;;;;;;5092163;28;20258;-81
2022/03/21 03:04:36;;;;;;;4.53;3.93;;;1.80;58.90;;;;;;5092342;28;20215;-81
2022/03/21 03:07:05;;;;;;;6.77;3.80;;;1.80;59.10;;;;;;5092427;28;20205;-81
2022/03/21 03:09:34;;;;;;;4.57;3.40;;;1.80;59.30;;;;;;5092260;28;20230;-81
2022/03/21 03:12:03;;;;;;;4.77;3.77;;;1.80;59.40;;;;;;5092092;28;20220;-84
2022/03/21 03:14:32;;;;;;;4.33;3.90;;;1.80;59.50;;;;;;5092492;28;20212;-83
2022/03/21 03:17:01;;;;;;;4.85;3.25;;;1.80;59.60;;;;;;5092322;28;20292;-83
2022/03/21 03:19:29;;;;;;;5.07;4.50;;;1.80;59.90;;;;;;5094238;28;20231;-82
2022/03/21 03:21:58;;;;;;;5.87;3.70;;;1.80;59.80;;;;;;5096009;28;20253;-83
2022/03/21 03:24:28;;;;;;;3.78;3.33;;;1.80;60.00;;;;;;5096753;28;20235;-82
2022/03/21 03:26:56;;;;;;;4.33;3.10;;;1.80;59.90;;;;;;5096493;28;20271;-83
2022/03/21 03:29:25;;;;;;;3.67;3.37;;;1.80;60.10;;;;;;5096224;28;20367;-83
2022/03/21 03:31:55;;;;;;;12.70;3.57;;;1.70;60.90;;;;;;5096039;28;20307;-82
2022/03/21 03:34:23;;;;;;;3.83;3.47;;;1.70;61.50;;;;;;5096225;28;20284;-84
2022/03/21 03:36:52;;;;;;;7.50;4.77;;;1.70;60.90;;;;;;5096379;28;20259;-81
2022/03/21 03:39:20;;;;;;;4.33;3.50;;;1.70;60.90;;;;;;5096153;28;20200;-82
2022/03/21 03:41:49;;;;;;;4.90;3.43;;;1.70;60.80;;;;;;5095910;28;20263;-81
2022/03/21 03:44:17;;;;;;;3.63;3.23;;;1.60;61.00;;;;;;5095719;28;20299;-84
2022/03/21 03:46:46;;;;;;;7.93;3.67;;;1.70;61.00;;;;;;5095576;28;20231;-81
2022/03/21 03:49:16;;;;;;;3.90;3.60;;;1.60;61.70;;;;;;5095723;28;20216;-83
2022/03/21 03:51:44;;;;;;;4.73;3.47;;;1.60;62.40;;;;;;5095610;28;20269;-81
2022/03/21 03:54:13;;;;;;;8.17;4.60;;;1.60;61.20;;;;;;5095724;28;20243;-83
2022/03/21 03:56:41;;;;;;;3.73;3.40;;;1.60;61.50;;;;;;5095957;28;20227;-83
2022/03/21 03:59:09;;;;;;;2.77;2.57;;;1.60;61.70;;;;;;5095972;28;20212;-82
2022/03/21 04:01:38;;;;;;;3.57;3.23;;;1.60;61.20;;;;;;5095139;28;20293;-83
2022/03/21 04:04:07;;;;;;;3.80;3.17;;;1.60;62.10;;;;;;5095876;28;20211;-81
2022/03/21 04:06:36;;;;;;;4.00;3.70;;;1.60;61.40;;;;;;5095651;28;20196;-84
2022/03/21 04:09:05;;;;;;;5.17;3.70;;;1.60;62.20;;;;;;5095755;28;20224;-83
2022/03/21 04:11:34;;;;;;;3.87;2.87;;;1.60;62.20;;;;;;5095191;28;20247;-84
2022/03/21 04:14:02;;;;;;;3.33;3.03;;;1.60;62.00;;;;;;5095270;28;20205;-82
2022/03/21 04:16:30;;;;;;;5.30;4.10;;;1.60;62.00;;;;;;5095570;28;20288;-82
2022/03/21 04:18:59;;;;;;;2.83;2.63;;;1.60;62.00;;;;;;5094999;28;20208;-83
2022/03/21 04:21:28;;;;;;;3.93;3.47;;;1.50;62.50;;;;;;5095092;28;20238;-83
2022/03/21 04:23:58;;;;;;;3.57;3.27;;;1.50;61.60;;;;;;5095184;28;20239;-83
2022/03/21 04:26:26;;;;;;;3.27;3.00;;;1.50;62.10;;;;;;5095605;28;20233;-83
2022/03/21 04:28:56;;;;;;;3.63;3.00;;;1.50;61.20;;;;;;5095275;28;20236;-83
2022/03/21 04:31:24;;;;;;;4.10;3.70;;;1.50;61.60;;;;;;5094365;28;20224;-83
2022/03/21 04:33:53;;;;;;;3.27;2.97;;;1.50;62.40;;;;;;5095094;28;20235;-83
2022/03/21 04:36:22;;;;;;;5.00;3.27;;;1.50;63.30;;;;;;5095212;28;20254;-84
2022/03/21 04:38:50;;;;;;;3.50;3.07;;;1.50;62.10;;;;;;5095463;28;20296;-81
2022/03/21 04:41:20;;;;;;;3.90;3.50;;;1.50;62.40;;;;;;5094546;28;20277;-81
2022/03/21 04:43:49;;;;;;;4.63;3.40;;;1.40;62.30;;;;;;5094331;28;20311;-83
2022/03/21 04:46:18;;;;;;;6.30;4.00;;;1.40;63.20;;;;;;5095040;28;20204;-83
2022/03/21 04:48:47;;;;;;;4.43;3.20;;;1.40;64.00;;;;;;5094849;28;20200;-83
2022/03/21 04:51:15;;;;;;;4.50;4.03;;;1.40;63.40;;;;;;5094176;28;20224;-83
2022/03/21 04:53:43;;;;;;;4.13;3.73;;;1.40;64.20;;;;;;5094252;28;20256;-83
2022/03/21 04:56:11;;;;;;;4.83;4.40;;;1.40;63.90;;;;;;5094714;28;20209;-84
2022/03/21 04:58:41;;;;;;;4.63;3.95;;;1.40;63.30;;;;;;5094143;28;20243;-81
2022/03/21 05:01:10;;;;;;;4.87;4.30;;;1.40;63.70;;;;;;5094155;28;20254;-81
2022/03/21 05:03:39;;;;;;;5.87;4.60;;;1.40;65.00;;;;;;5094264;28;20307;-80
2022/03/21 05:06:07;;;;;;;4.80;4.30;;;1.50;64.30;;;;;;5094857;28;20208;-80
2022/03/21 05:08:36;;;;;;;4.47;4.07;;;1.50;66.90;;;;;;5094254;28;20261;-83
2022/03/21 05:11:04;;;;;;;5.17;4.40;;;1.50;65.60;;;;;;5094428;28;20307;-83
2022/03/21 05:13:32;;;;;;;4.37;3.97;;;1.50;65.70;;;;;;5094388;28;20287;-83
2022/03/21 05:16:02;;;;;;;6.40;4.30;;;1.50;64.80;;;;;;5094286;28;20284;-83
2022/03/21 05:18:34;;;;;;;4.30;3.90;;;1.40;64.90;;;;;;5093862;28;20284;-82
2022/03/21 05:21:03;;;;;;;6.90;4.27;;;1.40;64.80;;;;;;5093599;28;20230;-83
2022/03/21 05:31:50;;;;;;;4.70;4.27;;;1.40;67.80;;;;;;5093764;28;20255;-83
2022/03/21 05:37:05;;;;;;;6.50;4.60;;;1.40;65.30;;;;;;5093988;28;20206;-83
2022/03/21 05:39:34;;;;;;;10.03;4.77;;;1.40;65.90;;;;;;5093802;28;20200;-83
2022/03/21 05:42:02;;;;;;;6.43;5.30;;;1.50;64.60;;;;;;5092651;28;20252;-83
2022/03/21 05:44:30;;;;;;;10.13;5.77;;;1.50;64.90;;;;;;5093734;28;20307;-83
2022/03/21 05:47:00;;;;;;;4.70;4.20;;;1.60;65.30;;;;;;5093710;28;20235;-80
2022/03/21 05:49:27;;;;;;;5.37;4.60;;;1.60;65.30;;;;;;5093463;28;20239;-81
2022/03/21 05:51:55;;;;;;;10.90;5.53;;;1.60;65.90;;;;;;5093029;28;20315;-81
2022/03/21 05:54:24;;;;;;;5.47;4.67;;;1.60;63.60;;;;;;5093884;28;20231;-80
2022/03/21 05:56:52;;;;;;;7.20;4.80;;;1.60;63.40;;;;;;5093460;28;20223;-80
2022/03/21 06:02:08;;;;;;;5.60;4.68;;;1.70;63.10;;;;;;5093058;28;20252;-80
2022/03/21 06:04:36;;;;;;;6.23;4.80;;;1.70;63.60;;;;;;5092972;28;20273;-80
2022/03/21 06:07:05;;;;;;;4.73;4.00;;;1.80;63.80;;;;;;5093483;28;20275;-82
2022/03/21 06:09:34;;;;;;;4.50;4.10;;;1.80;63.30;;;;;;5093693;28;20249;-82
2022/03/21 06:12:02;;;;;;;7.33;5.10;;;1.90;63.70;;;;;;5093212;28;20228;-83
2022/03/21 06:14:30;;;;;;;5.53;4.57;;;1.90;64.00;;;;;;5093155;28;20283;-83
2022/03/21 06:16:58;;;;;;;6.30;4.33;;;2.00;64.70;;;;;;5092952;28;20235;-82
2022/03/21 06:19:29;;;;;;;7.87;5.57;;;2.10;63.60;;;;;;5093169;28;20208;-80
2022/03/21 06:21:57;;;;;;;7.30;5.70;;;2.20;64.40;;;;;;5093172;28;20251;-80
2022/03/21 06:24:25;;;;;;;5.60;5.00;;;2.20;63.00;;;;;;5092932;28;20284;-83
2022/03/21 06:26:54;;;;;;;8.35;5.88;;;2.30;62.30;;;;;;5092894;28;20232;-83
2022/03/21 06:29:22;;;;;;;5.55;5.05;;;2.30;63.20;;;;;;5092686;28;20204;-83
2022/03/21 06:31:50;;;;;;;5.67;5.07;;;2.40;62.20;;;;;;5092555;28;20246;-80
2022/03/21 06:34:19;;;;;;;10.95;5.70;;;2.40;61.60;;;;;;5092881;28;20281;-80
2022/03/21 06:36:49;;;;;;;7.93;5.50;;;2.50;61.60;;;;;;5092614;28;20256;-80
2022/03/21 06:39:18;;;;;;;6.38;5.78;;;2.50;62.40;;;;;;5092778;28;20263;-83
2022/03/21 06:41:46;;;;;;;6.20;5.53;;;2.50;62.70;;;;;;5092291;28;20228;-81
2022/03/21 06:44:15;;;;;;;6.30;5.50;;;2.50;62.50;;;;;;5092542;28;20366;-81
2022/03/21 06:46:43;;;;;;;6.57;5.63;;;2.50;62.40;;;;;;5092873;28;20235;-80
2022/03/21 06:49:11;;;;;;;9.55;6.63;;;2.50;62.50;;;;;;5092388;28;20239;-80
2022/03/21 06:51:40;;;;;;;9.93;5.82;;;2.60;64.70;;;;;;5092117;28;20259;-81
2022/03/21 06:54:10;;;;;;;9.75;5.93;;;2.60;63.20;;;;;;5092455;28;20208;-81
2022/03/21 06:56:38;;;;;;;7.05;5.15;;;2.80;62.40;;;;;;5092321;28;20251;-81
2022/03/21 06:59:06;;;;;;;7.13;5.57;;;2.90;62.60;;;;;;5092719;28;20273;-81
2022/03/21 07:01:36;;;;;;;6.65;5.38;;;2.90;61.30;;;;;;5092471;28;20239;-81
2022/03/21 07:04:05;;;;;;;6.30;5.33;;;3.00;61.30;;;;;;5092167;28;20261;-81
2022/03/21 07:06:33;;;;;;;6.72;5.18;;;3.10;60.80;;;;;;5092388;28;20209;-80
2022/03/21 07:09:02;;;;;;;7.82;5.45;;;3.20;61.00;;;;;;5092053;28;20237;-81
2022/03/21 07:11:34;;;;;;;7.07;5.82;;;3.30;62.70;;;;;;5091966;28;20252;-83
2022/03/21 07:14:02;;;;;;;5.05;4.55;;;3.40;60.50;;;;;;5093161;28;20230;-81
2022/03/21 07:16:31;;;;;;;8.18;5.30;;;3.50;61.10;;;;;;5092669;28;20200;-81
2022/03/21 07:18:59;;;;;;;5.97;5.20;;;3.60;59.70;;;;;;5092319;28;20216;-81
2022/03/21 07:21:28;;;;;;;5.18;4.68;;;3.70;59.10;;;;;;5091342;28;20292;-81
2022/03/21 07:23:58;;;;;;;5.38;4.88;;;3.90;59.00;;;;;;5086552;28;20278;-81
2022/03/21 07:26:26;;;;;;;10.27;5.43;;;3.90;58.50;;;;;;5092628;28;20216;-81
2022/03/21 07:28:56;;;;;;;6.90;6.05;;;4.10;58.80;;;;;;5082486;28;20201;-81
2022/03/21 07:31:33;;;;;;;5.97;5.35;;;4.30;58.50;;;;;;5085450;28;20222;-80
2022/03/21 07:34:01;;;;;;;7.47;5.65;;;4.40;62.90;;;;;;5079698;28;20204;-80
2022/03/21 07:36:30;;;;;;;6.30;5.03;;;4.40;58.00;;;;;;5072067;28;20202;-82
2022/03/21 07:38:59;;;;;;;5.13;4.63;;;4.50;57.50;;;;;;5072312;28;20247;-77
2022/03/21 07:41:28;;;;;;;7.63;5.80;;;4.60;57.40;;;;;;5071965;28;20237;-79
2022/03/21 07:43:59;;;;;;;4.30;3.90;;;4.70;57.30;;;;;;5071589;28;20213;-82
2022/03/21 07:49:14;;;;;;;7.75;5.15;;;4.90;57.60;;;;;;5087774;28;20198;-84
2022/03/21 07:51:43;;;;;;;6.05;5.20;;;5.00;57.80;;;;;;5077359;28;20245;-87
2022/03/21 07:54:12;;;;;;;6.00;4.88;;;5.10;57.80;;;;;;5113751;28;20252;-91
2022/03/21 07:56:42;;;;;;;5.53;4.95;;;5.20;57.10;;;;;;5107044;28;20296;-83
2022/03/21 07:59:12;;;;;;;23.35;5.57;;;5.20;56.40;;;;;;5071898;28;20225;-85
2022/03/21 08:01:45;;;;;;;6.28;4.90;;;5.30;56.30;;;;;;5071486;28;20256;-85
2022/03/21 08:04:14;;;;;;;11.80;5.15;;;5.40;57.00;;;;;;5085669;28;20217;-85
2022/03/21 08:06:43;;;;;;;10.70;5.25;;;5.50;56.30;;;;;;5096302;28;20280;-85
2022/03/21 08:09:11;;;;;;;6.13;5.20;;;5.70;56.10;;;;;;5095896;28;20200;-86
2022/03/21 08:11:39;;;;;;;5.32;4.35;;;5.80;54.80;;;;;;5084912;28;20221;-85
2022/03/21 08:14:22;;;;;;;5.43;4.85;;;5.90;54.50;;;;;;5080023;28;20201;-86
2022/03/21 08:16:51;;;;;;;5.10;4.60;;;6.00;54.30;;;;;;5076380;28;20235;-85
2022/03/21 08:19:22;;;;;;;5.30;4.80;;;6.10;54.10;;;;;;5076466;28;20229;-86
2022/03/21 08:21:50;;;;;;;4.43;4.03;;;6.30;54.70;;;;;;5077286;28;20241;-86
2022/03/21 08:24:18;;;;;;;5.20;4.55;;;6.40;52.80;;;;;;5076047;28;20217;-85
2022/03/21 08:26:47;;;;;;;7.72;4.53;;;6.50;52.60;;;;;;5082179;28;20243;-86
2022/03/21 08:29:16;;;;;;;4.95;4.45;;;6.70;53.70;;;;;;5095404;28;20197;-85
2022/03/21 08:31:46;;;;;;;4.53;4.18;;;6.90;54.40;;;;;;5095634;28;20224;-85
2022/03/21 08:34:14;;;;;;;4.90;4.15;;;7.10;52.90;;;;;;5096089;28;20238;-86
2022/03/21 08:36:42;;;;;;;5.13;4.35;;;7.30;52.70;;;;;;5095716;28;20234;-85
2022/03/21 08:39:11;;;;;;;6.35;3.97;;;7.60;51.60;;;;;;5095722;28;20227;-85
2022/03/21 08:41:39;;;;;;;4.63;4.22;;;7.80;50.70;;;;;;5095812;28;20291;-84
2022/03/21 08:44:08;;;;;;;7.15;4.68;;;7.80;50.30;;;;;;5094824;28;20196;-85
2022/03/21 08:46:36;;;;;;;5.03;3.50;;;8.00;49.80;;;;;;5095646;28;20223;-85
2022/03/21 08:49:27;;;;;;;3.97;3.58;;;8.40;49.40;;;;;;5095992;28;20208;-85
2022/03/21 08:52:01;;;;;;;3.90;3.60;;;8.80;51.20;;;;;;5095161;28;20299;-85
2022/03/21 08:54:29;;;;;;;3.58;3.28;;;9.40;47.50;;;;;;5095848;28;20204;-85
2022/03/21 08:56:57;;;;;;;6.25;3.58;;;10.20;45.20;;;;;;5095849;28;20281;-85
2022/03/21 08:59:26;;;;;;;4.80;3.97;;;10.90;45.80;;;;;;5095448;28;20197;-84
2022/03/21 09:01:54;;;;;;;4.45;3.60;;;11.20;42.70;;;;;;5095643;28;20243;-86
2022/03/21 09:04:24;;;;;;;4.03;3.67;;;11.50;41.90;;;;;;5094927;28;20224;-84
2022/03/21 09:06:53;;;;;;;3.60;3.30;;;11.80;40.80;;;;;;5095417;28;20201;-85
2022/03/21 09:09:21;;;;;;;7.30;4.35;;;12.30;40.80;;;;;;5095580;28;20200;-85
2022/03/21 09:11:55;;;;;;;4.38;3.97;;;12.90;39.80;;;;;;5095030;28;20223;-84
2022/03/21 09:14:23;;;;;;;4.07;3.78;;;13.10;40.00;;;;;;5095773;28;20232;-78
2022/03/21 09:16:52;;;;;;;4.07;3.58;;;13.30;42.10;;;;;;5095080;28;20208;-84
2022/03/21 09:19:22;;;;;;;4.35;3.95;;;13.60;38.90;;;;;;5095441;28;20211;-86
2022/03/21 09:21:53;;;;;;;4.75;4.35;;;13.90;37.90;;;;;;5095149;28;20225;-84
2022/03/21 09:24:21;;;;;;;4.72;4.03;;;13.70;38.30;;;;;;5094936;28;20229;-84
2022/03/21 09:26:49;;;;;;;3.05;2.85;;;13.60;38.20;;;;;;5075099;28;20225;-82
2022/03/21 09:29:18;;;;;;;8.77;4.60;;;14.10;38.50;;;;;;5077022;28;20246;-83
2022/03/21 09:31:48;;;;;;;4.25;3.85;;;14.30;37.40;;;;;;5093782;28;20217;-83
2022/03/21 09:34:18;;;;;;;4.50;4.10;;;14.90;38.90;;;;;;5094982;28;20205;-83
2022/03/21 09:36:48;;;;;;;6.78;3.70;;;15.40;37.80;;;;;;5093922;28;20202;-83
2022/03/21 09:39:18;;;;;;;4.38;3.97;;;15.30;36.10;;;;;;5094703;28;20250;-84
2022/03/21 09:41:47;;;;;;;4.18;3.78;;;15.10;35.20;;;;;;5077315;28;20217;-83
2022/03/21 09:44:16;;;;;;;4.10;3.70;;;14.70;34.90;;;;;;5074102;28;20259;-83
2022/03/21 09:46:47;;;;;;;4.13;3.78;;;14.80;34.60;;;;;;5092275;28;20192;-84
2022/03/21 09:49:16;;;;;;;4.60;3.83;;;14.80;33.90;;;;;;5077392;28;20201;-83
2022/03/21 09:51:45;;;;;;;4.40;4.00;;;14.90;34.70;;;;;;5073823;28;20248;-83
2022/03/21 09:54:15;;;;;;;4.80;3.63;;;15.70;36.50;;;;;;5074333;28;20232;-83
2022/03/21 09:56:44;;;;;;;4.70;3.97;;;16.10;35.20;;;;;;5084401;28;20231;-83
2022/03/21 09:59:13;;;;;;;5.45;4.18;;;16.40;33.00;;;;;;5087719;28;20208;-83
2022/03/21 10:01:44;;;;;;;5.47;4.93;;;16.70;33.90;;;;;;5091073;28;20284;-83
2022/03/21 10:04:12;;;;;;;4.95;4.30;;;16.60;33.30;;;;;;5093689;28;20291;-83
2022/03/21 10:06:45;;;;;;;18.20;4.97;;;17.00;33.60;;;;;;5094091;28;20228;-84
2022/03/21 10:09:15;;;;;;;6.22;4.55;;;17.10;33.30;;;;;;5093365;28;20216;-83
2022/03/21 10:11:52;;;;;;;5.65;4.53;;;17.10;33.40;;;;;;5093913;28;20229;-82
2022/03/21 10:14:38;;;;;;;4.60;4.07;;;17.00;34.50;;;;;;5093874;28;20227;-83
2022/03/21 10:17:09;;;;;;;4.72;4.32;;;16.70;32.20;;;;;;5093824;28;20197;-83
2022/03/21 10:19:45;;;;;;;3.97;3.60;;;16.10;33.50;;;;;;5093799;28;20204;-83
2022/03/21 10:22:15;;;;;;;4.20;3.60;;;16.10;32.40;;;;;;5093603;28;20219;-82
2022/03/21 10:24:45;;;;;;;4.72;4.30;;;15.90;32.30;;;;;;5093665;28;20239;-83
2022/03/21 10:27:34;;;;;;;6.90;4.38;;;16.20;33.60;;;;;;5091362;28;20248;-83
2022/03/21 10:30:07;;;;;;;4.45;4.05;;;16.40;33.10;;;;;;5077720;28;20219;-83
2022/03/21 10:32:39;;;;;;;5.25;4.32;;;16.50;31.60;;;;;;5093821;28;20228;-83
2022/03/21 10:35:12;;;;;;;3.83;3.53;;;16.40;31.10;;;;;;5089349;28;20262;-82
2022/03/21 10:37:48;;;;;;;6.88;4.32;;;16.80;31.90;;;;;;5073604;28;20221;-83
2022/03/21 10:40:20;;;;;;;4.05;3.72;;;17.10;32.40;;;;;;5075171;28;20200;-82
2022/03/21 10:42:56;;;;;;;3.97;3.70;;;17.40;30.80;;;;;;5083743;28;20192;-83
2022/03/21 10:45:26;;;;;;;10.52;4.45;;;17.50;31.80;;;;;;5094185;28;20207;-84
2022/03/21 10:47:55;;;;;;;5.93;3.97;;;17.60;31.60;;;;;;5093818;28;20248;-84
2022/03/21 10:50:34;;;;;;;5.85;4.57;;;17.40;30.60;;;;;;5093451;28;20227;-84
2022/03/21 10:53:09;;;;;;;4.03;3.72;;;17.40;31.50;;;;;;5093542;28;20299;-84
2022/03/21 10:55:38;;;;;;;5.03;4.32;;;17.70;31.10;;;;;;5080150;28;20296;-84
2022/03/21 10:58:09;;;;;;;4.13;3.83;;;17.70;30.00;;;;;;5093639;28;20212;-83
2022/03/21 11:00:37;;;;;;;5.00;4.05;;;17.50;30.10;;;;;;5083313;28;20221;-83
2022/03/21 11:03:09;;;;;;;4.20;3.80;;;17.50;29.50;;;;;;5073445;28;20284;-83
2022/03/21 11:05:39;;;;;;;4.70;4.30;;;17.40;30.10;;;;;;5087311;28;20188;-84
2022/03/21 11:08:09;;;;;;;4.63;4.22;;;17.60;31.00;;;;;;5093640;28;20200;-84
2022/03/21 11:10:38;;;;;;;5.45;4.97;;;17.70;31.00;;;;;;5078980;28;20240;-83
2022/03/21 11:13:09;;;;;;;4.50;3.60;;;18.20;31.30;;;;;;5073223;28;20221;-84
2022/03/21 11:15:40;;;;;;;6.20;4.88;;;18.50;30.10;;;;;;5077164;28;20251;-84
2022/03/21 11:18:10;;;;;;;4.07;3.60;;;18.90;31.40;;;;;;5073234;28;20213;-84
2022/03/21 11:20:38;;;;;;;4.15;3.85;;;19.30;29.80;;;;;;5091723;28;20220;-84
2022/03/21 11:23:07;;;;;;;5.95;4.90;;;19.70;30.00;;;;;;5089724;28;20203;-83
2022/03/21 11:25:41;;;;;;;4.55;3.92;;;19.50;29.50;;;;;;5073090;28;20205;-83
2022/03/21 11:28:43;;;;;;;3.97;3.67;;;18.90;29.10;;;;;;5072832;28;20209;-83
2022/03/21 11:31:38;;;;;;;4.82;3.70;;;19.00;29.40;;;;;;5071673;28;20278;-80
2022/03/21 11:34:20;;;;;;;3.78;3.42;;;18.70;32.30;;;;;;5054855;28;20209;-80
2022/03/21 11:36:52;;;;;;;4.85;4.15;;;19.10;33.60;;;;;;5072979;28;20299;-80
2022/03/21 11:39:21;;;;;;;6.05;3.85;;;19.30;32.60;;;;;;5072899;28;20284;-78
2022/03/21 11:42:00;;;;;;;4.45;3.92;;;19.60;31.30;;;;;;5076763;28;20248;-79
2022/03/21 11:44:29;;;;;;;3.58;3.28;;;19.70;31.00;;;;;;5082707;28;20211;-83
2022/03/21 11:47:24;;;;;;;4.00;3.67;;;19.60;28.90;;;;;;5081694;28;20201;-83
2022/03/21 11:49:55;;;;;;;5.20;3.22;;;19.00;28.10;;;;;;5076672;28;20212;-83
2022/03/21 11:52:24;;;;;;;3.75;3.42;;;18.70;27.20;;;;;;5094908;28;20284;-83
2022/03/21 11:54:53;;;;;;;4.38;3.90;;;18.60;28.40;;;;;;5096405;28;20255;-83
2022/03/21 11:57:31;;;;;;;4.70;4.22;;;19.20;29.80;;;;;;5089152;28;20224;-83
2022/03/21 12:00:01;;;;;;;4.07;3.67;;;19.20;28.90;;;;;;5093290;28;20208;-84
2022/03/21 12:02:56;;;;;;;5.38;3.70;;;19.30;28.40;;;;;;5076718;28;20312;-86
2022/03/21 12:05:53;;;;;;;5.60;5.05;;;19.50;28.80;;;;;;5076396;28;20217;-87
2022/03/21 12:08:36;;;;;;;6.35;5.78;;;19.30;28.40;;;;;;5059217;28;20208;-87
2022/03/21 12:11:04;;;;;;;6.15;4.43;;;19.60;28.40;;;;;;5091231;28;20263;-86
2022/03/21 12:13:46;;;;;;;7.57;4.18;;;19.80;27.60;;;;;;5089408;28;20295;-86
2022/03/21 12:16:19;;;;;;;7.07;4.20;;;19.90;27.70;;;;;;5086855;28;20278;-86
2022/03/21 12:19:03;;;;;;;5.18;4.45;;;20.10;29.00;;;;;;5075967;28;20289;-86
2022/03/21 12:21:31;;;;;;;4.15;3.83;;;19.90;27.10;;;;;;5090752;28;20239;-86
2022/03/21 12:24:13;;;;;;;3.97;3.67;;;20.00;27.90;;;;;;5096137;28;20196;-84
2022/03/21 12:26:54;;;;;;;6.10;4.38;;;19.70;27.30;;;;;;5078423;28;20208;-85
2022/03/21 12:29:33;;;;;;;5.05;4.57;;;19.70;27.50;;;;;;5078809;28;20273;-86
2022/03/21 12:32:24;;;;;;;4.47;4.07;;;19.70;27.40;;;;;;5083065;28;20220;-86
2022/03/21 12:34:55;;;;;;;3.85;3.55;;;19.90;28.10;;;;;;5077059;28;20229;-86
2022/03/21 12:37:44;;;;;;;4.40;4.00;;;20.10;27.50;;;;;;5082224;28;20216;-86
2022/03/21 12:40:14;;;;;;;4.65;3.53;;;19.90;28.60;;;;;;5084366;28;20196;-85
2022/03/21 12:42:47;;;;;;;4.60;4.20;;;19.80;28.30;;;;;;5085030;28;20240;-86
2022/03/21 12:45:19;;;;;;;3.92;3.63;;;20.00;27.80;;;;;;5095428;28;20208;-85
2022/03/21 12:47:48;;;;;;;7.65;3.85;;;19.70;28.00;;;;;;5091333;28;20192;-86
2022/03/21 12:50:31;;;;;;;3.45;3.20;;;19.80;27.40;;;;;;5079043;28;20258;-82
2022/03/21 12:56:01;;;;;;;4.18;3.83;;;18.80;27.30;;;;;;5065841;28;20209;-83
2022/03/21 12:58:32;;;;;;;3.95;3.55;;;18.60;27.90;;;;;;5086058;28;20200;-83
2022/03/21 13:01:03;;;;;;;5.25;3.95;;;18.40;27.30;;;;;;5093028;28;20224;-83
2022/03/21 13:03:32;;;;;;;6.80;4.53;;;18.40;27.40;;;;;;5079264;28;20210;-83
2022/03/21 13:11:37;;;;;;;5.90;4.18;;;18.50;27.30;;;;;;5095988;28;20236;-83
2022/03/21 13:14:13;;;;;;;3.72;3.42;;;19.00;27.30;;;;;;5095493;28;20201;-83
2022/03/21 13:17:06;;;;;;;4.45;3.63;;;19.30;27.20;;;;;;5095047;28;20235;-83
2022/03/21 13:19:37;;;;;;;5.72;4.53;;;19.00;26.50;;;;;;5080188;28;20197;-83
2022/03/21 13:22:07;;;;;;;4.70;3.95;;;18.50;26.60;;;;;;5074573;28;20274;-83
2022/03/21 13:24:39;;;;;;;3.80;3.50;;;18.40;27.30;;;;;;5074263;28;20217;-82
2022/03/21 13:27:09;;;;;;;4.75;3.45;;;18.20;27.00;;;;;;5073764;28;20224;-82
2022/03/21 13:29:46;;;;;;;4.43;3.38;;;18.30;27.10;;;;;;5084058;28;20228;-82
2022/03/21 13:32:14;;;;;;;3.92;3.63;;;18.30;26.50;;;;;;5085912;28;20215;-82
2022/03/21 13:34:49;;;;;;;4.55;3.83;;;18.30;27.60;;;;;;5088539;28;20287;-82
2022/03/21 13:37:21;;;;;;;5.35;4.28;;;18.20;27.10;;;;;;5081881;28;20267;-82
2022/03/21 13:39:58;;;;;;;5.65;3.75;;;18.00;27.50;;;;;;5074192;28;20209;-83